Aviation Digital Data Service (ADDS)

Output produced by METARs form (1045 UTC 18 August 2017)
found at http://www.aviationweather.gov/adds/metars/
 
KATL 180956Z 1810/1912 25007KT P6SM SCT250 
     FM181200 24007KT P6SM FEW020 
     FM181400 28007KT P6SM SCT030 BKN200 
     FM181700 29009KT P6SM VCSH SCT040 BKN250 
     FM190000 30008KT P6SM SCT250